sensor_id;sensor_type;location;lat;lon;timestamp;temperature;humidity
7666;DHT22;3875;46.562;4.898;2023-08-08T00:00:18;15.80;81.30
7666;DHT22;3875;46.562;4.898;2023-08-08T00:02:44;15.80;81.30
7666;DHT22;3875;46.562;4.898;2023-08-08T00:05:09;15.90;81.10
7666;DHT22;3875;46.562;4.898;2023-08-08T00:07:35;15.90;80.80
7666;DHT22;3875;46.562;4.898;2023-08-08T00:10:01;15.90;80.60
7666;DHT22;3875;46.562;4.898;2023-08-08T00:12:26;15.90;80.60
7666;DHT22;3875;46.562;4.898;2023-08-08T00:14:52;15.80;80.40
7666;DHT22;3875;46.562;4.898;2023-08-08T00:17:17;15.80;80.40
7666;DHT22;3875;46.562;4.898;2023-08-08T00:19:43;15.80;80.40
7666;DHT22;3875;46.562;4.898;2023-08-08T00:22:09;15.80;80.20
7666;DHT22;3875;46.562;4.898;2023-08-08T00:24:34;15.80;80.20
7666;DHT22;3875;46.562;4.898;2023-08-08T00:27:00;15.80;80.20
7666;DHT22;3875;46.562;4.898;2023-08-08T00:29:26;15.80;80.30
7666;DHT22;3875;46.562;4.898;2023-08-08T00:31:51;15.70;80.10
7666;DHT22;3875;46.562;4.898;2023-08-08T00:34:17;15.50;80.30
7666;DHT22;3875;46.562;4.898;2023-08-08T00:36:43;15.50;80.30
7666;DHT22;3875;46.562;4.898;2023-08-08T00:39:09;15.40;80.50
7666;DHT22;3875;46.562;4.898;2023-08-08T00:41:35;15.30;80.90
7666;DHT22;3875;46.562;4.898;2023-08-08T00:44:01;15.20;81.20
7666;DHT22;3875;46.562;4.898;2023-08-08T00:46:26;15.20;81.30
7666;DHT22;3875;46.562;4.898;2023-08-08T00:48:52;15.20;81.30
7666;DHT22;3875;46.562;4.898;2023-08-08T00:51:19;15.10;81.40
7666;DHT22;3875;46.562;4.898;2023-08-08T00:53:45;15.10;81.60
7666;DHT22;3875;46.562;4.898;2023-08-08T00:56:14;15.00;81.80
7666;DHT22;3875;46.562;4.898;2023-08-08T00:58:42;15.00;81.80
7666;DHT22;3875;46.562;4.898;2023-08-08T01:01:11;15.00;81.90
7666;DHT22;3875;46.562;4.898;2023-08-08T01:03:37;15.00;81.80
7666;DHT22;3875;46.562;4.898;2023-08-08T01:06:04;15.00;81.80
7666;DHT22;3875;46.562;4.898;2023-08-08T01:08:41;15.00;82.00
7666;DHT22;3875;46.562;4.898;2023-08-08T01:11:08;15.00;82.00
7666;DHT22;3875;46.562;4.898;2023-08-08T01:13:37;15.10;81.70
7666;DHT22;3875;46.562;4.898;2023-08-08T01:16:04;15.10;81.60
7666;DHT22;3875;46.562;4.898;2023-08-08T01:18:32;15.10;81.50
7666;DHT22;3875;46.562;4.898;2023-08-08T01:20:58;15.10;81.40
7666;DHT22;3875;46.562;4.898;2023-08-08T01:23:30;15.10;81.50
7666;DHT22;3875;46.562;4.898;2023-08-08T01:25:59;15.20;81.40
7666;DHT22;3875;46.562;4.898;2023-08-08T01:28:26;15.20;81.40
7666;DHT22;3875;46.562;4.898;2023-08-08T01:30:51;15.20;81.40
7666;DHT22;3875;46.562;4.898;2023-08-08T01:33:17;15.30;81.40
7666;DHT22;3875;46.562;4.898;2023-08-08T01:36:07;15.30;81.40
7666;DHT22;3875;46.562;4.898;2023-08-08T01:38:40;15.30;81.30
7666;DHT22;3875;46.562;4.898;2023-08-08T01:41:07;15.30;81.30
7666;DHT22;3875;46.562;4.898;2023-08-08T01:43:34;15.30;81.30
7666;DHT22;3875;46.562;4.898;2023-08-08T01:46:00;15.30;81.30
7666;DHT22;3875;46.562;4.898;2023-08-08T01:48:28;15.20;81.40
7666;DHT22;3875;46.562;4.898;2023-08-08T01:50:53;15.20;81.60
7666;DHT22;3875;46.562;4.898;2023-08-08T01:53:19;15.20;81.60
7666;DHT22;3875;46.562;4.898;2023-08-08T01:55:45;15.20;81.70
7666;DHT22;3875;46.562;4.898;2023-08-08T01:58:10;15.10;81.70
7666;DHT22;3875;46.562;4.898;2023-08-08T02:00:36;15.10;81.80
7666;DHT22;3875;46.562;4.898;2023-08-08T02:03:03;15.10;81.90
7666;DHT22;3875;46.562;4.898;2023-08-08T02:05:28;15.00;82.00
7666;DHT22;3875;46.562;4.898;2023-08-08T02:07:54;15.00;82.00
7666;DHT22;3875;46.562;4.898;2023-08-08T02:10:20;14.90;82.20
7666;DHT22;3875;46.562;4.898;2023-08-08T02:12:45;14.90;82.30
7666;DHT22;3875;46.562;4.898;2023-08-08T02:15:11;14.80;82.50
7666;DHT22;3875;46.562;4.898;2023-08-08T02:17:38;14.80;82.70
7666;DHT22;3875;46.562;4.898;2023-08-08T02:20:05;14.70;82.90
7666;DHT22;3875;46.562;4.898;2023-08-08T02:22:32;14.70;82.90
7666;DHT22;3875;46.562;4.898;2023-08-08T02:24:58;14.60;83.20
7666;DHT22;3875;46.562;4.898;2023-08-08T02:27:23;14.50;83.70
7666;DHT22;3875;46.562;4.898;2023-08-08T02:29:49;14.50;84.00
7666;DHT22;3875;46.562;4.898;2023-08-08T02:32:14;14.50;84.20
7666;DHT22;3875;46.562;4.898;2023-08-08T02:34:40;14.50;84.10
7666;DHT22;3875;46.562;4.898;2023-08-08T02:37:06;14.50;84.10
7666;DHT22;3875;46.562;4.898;2023-08-08T02:39:32;14.50;84.00
7666;DHT22;3875;46.562;4.898;2023-08-08T02:41:57;14.50;84.10
7666;DHT22;3875;46.562;4.898;2023-08-08T02:44:23;14.50;84.20
7666;DHT22;3875;46.562;4.898;2023-08-08T02:46:49;14.50;84.20
7666;DHT22;3875;46.562;4.898;2023-08-08T02:49:14;14.50;84.30
7666;DHT22;3875;46.562;4.898;2023-08-08T02:51:40;14.40;84.30
7666;DHT22;3875;46.562;4.898;2023-08-08T02:54:06;14.30;84.40
7666;DHT22;3875;46.562;4.898;2023-08-08T02:56:31;14.20;84.40
7666;DHT22;3875;46.562;4.898;2023-08-08T02:58:57;14.20;84.60
7666;DHT22;3875;46.562;4.898;2023-08-08T03:01:23;14.20;84.50
7666;DHT22;3875;46.562;4.898;2023-08-08T03:03:49;14.20;84.50
7666;DHT22;3875;46.562;4.898;2023-08-08T03:06:15;14.20;84.70
7666;DHT22;3875;46.562;4.898;2023-08-08T03:08:41;14.10;84.80
7666;DHT22;3875;46.562;4.898;2023-08-08T03:11:06;14.10;85.00
7666;DHT22;3875;46.562;4.898;2023-08-08T03:13:32;14.10;85.10
7666;DHT22;3875;46.562;4.898;2023-08-08T03:15:58;14.10;85.10
7666;DHT22;3875;46.562;4.898;2023-08-08T03:18:23;14.10;85.00
7666;DHT22;3875;46.562;4.898;2023-08-08T03:20:51;14.10;84.80
7666;DHT22;3875;46.562;4.898;2023-08-08T03:23:17;14.20;85.00
7666;DHT22;3875;46.562;4.898;2023-08-08T03:25:43;14.20;84.90
7666;DHT22;3875;46.562;4.898;2023-08-08T03:28:08;14.30;84.70
7666;DHT22;3875;46.562;4.898;2023-08-08T03:30:36;14.20;84.20
7666;DHT22;3875;46.562;4.898;2023-08-08T03:33:02;14.10;84.20
7666;DHT22;3875;46.562;4.898;2023-08-08T03:35:28;14.10;84.30
7666;DHT22;3875;46.562;4.898;2023-08-08T03:37:53;14.10;84.60
7666;DHT22;3875;46.562;4.898;2023-08-08T03:40:19;14.20;84.60
7666;DHT22;3875;46.562;4.898;2023-08-08T03:42:45;14.20;84.70
7666;DHT22;3875;46.562;4.898;2023-08-08T03:45:11;14.30;84.80
7666;DHT22;3875;46.562;4.898;2023-08-08T03:47:36;14.30;84.80
7666;DHT22;3875;46.562;4.898;2023-08-08T03:50:02;14.30;84.80
7666;DHT22;3875;46.562;4.898;2023-08-08T03:52:28;14.40;84.90
7666;DHT22;3875;46.562;4.898;2023-08-08T03:54:54;14.40;84.80
7666;DHT22;3875;46.562;4.898;2023-08-08T03:57:20;14.50;85.00
7666;DHT22;3875;46.562;4.898;2023-08-08T03:59:45;14.50;85.20
7666;DHT22;3875;46.562;4.898;2023-08-08T04:02:11;14.50;85.30
7666;DHT22;3875;46.562;4.898;2023-08-08T04:04:36;14.50;85.50
7666;DHT22;3875;46.562;4.898;2023-08-08T04:07:04;14.50;85.70
7666;DHT22;3875;46.562;4.898;2023-08-08T04:09:29;14.50;85.80
7666;DHT22;3875;46.562;4.898;2023-08-08T04:11:55;14.60;85.70
7666;DHT22;3875;46.562;4.898;2023-08-08T04:14:21;14.60;85.60
7666;DHT22;3875;46.562;4.898;2023-08-08T04:16:46;14.70;85.50
7666;DHT22;3875;46.562;4.898;2023-08-08T04:19:12;14.70;85.50
7666;DHT22;3875;46.562;4.898;2023-08-08T04:21:38;14.60;85.60
7666;DHT22;3875;46.562;4.898;2023-08-08T04:24:03;14.60;85.50
7666;DHT22;3875;46.562;4.898;2023-08-08T04:26:29;14.70;85.50
7666;DHT22;3875;46.562;4.898;2023-08-08T04:28:55;14.60;85.80
7666;DHT22;3875;46.562;4.898;2023-08-08T04:31:20;14.60;86.00
7666;DHT22;3875;46.562;4.898;2023-08-08T04:33:49;14.60;86.20
7666;DHT22;3875;46.562;4.898;2023-08-08T04:36:15;14.60;86.40
7666;DHT22;3875;46.562;4.898;2023-08-08T04:38:41;14.70;86.50
7666;DHT22;3875;46.562;4.898;2023-08-08T04:41:06;14.70;86.60
7666;DHT22;3875;46.562;4.898;2023-08-08T04:43:32;14.70;86.60
7666;DHT22;3875;46.562;4.898;2023-08-08T04:45:58;14.70;86.70
7666;DHT22;3875;46.562;4.898;2023-08-08T04:48:23;14.60;86.80
7666;DHT22;3875;46.562;4.898;2023-08-08T04:50:49;14.70;86.80
7666;DHT22;3875;46.562;4.898;2023-08-08T04:53:15;14.70;87.00
7666;DHT22;3875;46.562;4.898;2023-08-08T04:55:40;14.70;86.70
7666;DHT22;3875;46.562;4.898;2023-08-08T04:58:06;14.70;86.90
7666;DHT22;3875;46.562;4.898;2023-08-08T05:00:31;14.70;86.90
7666;DHT22;3875;46.562;4.898;2023-08-08T05:02:57;14.70;86.80
7666;DHT22;3875;46.562;4.898;2023-08-08T05:05:23;14.70;86.90
7666;DHT22;3875;46.562;4.898;2023-08-08T05:07:48;14.70;86.90
7666;DHT22;3875;46.562;4.898;2023-08-08T05:10:14;14.60;86.80
7666;DHT22;3875;46.562;4.898;2023-08-08T05:12:40;14.60;86.80
7666;DHT22;3875;46.562;4.898;2023-08-08T05:15:06;14.70;86.80
7666;DHT22;3875;46.562;4.898;2023-08-08T05:17:31;14.60;86.80
7666;DHT22;3875;46.562;4.898;2023-08-08T05:19:57;14.60;86.70
7666;DHT22;3875;46.562;4.898;2023-08-08T05:22:23;14.60;86.80
7666;DHT22;3875;46.562;4.898;2023-08-08T05:24:49;14.60;86.80
7666;DHT22;3875;46.562;4.898;2023-08-08T05:27:14;14.70;86.90
7666;DHT22;3875;46.562;4.898;2023-08-08T05:29:40;14.70;86.90
7666;DHT22;3875;46.562;4.898;2023-08-08T05:32:07;14.90;86.90
7666;DHT22;3875;46.562;4.898;2023-08-08T05:34:33;15.00;86.50
7666;DHT22;3875;46.562;4.898;2023-08-08T05:36:59;15.20;86.40
7666;DHT22;3875;46.562;4.898;2023-08-08T05:39:25;15.30;86.20
7666;DHT22;3875;46.562;4.898;2023-08-08T05:41:50;15.40;85.90
7666;DHT22;3875;46.562;4.898;2023-08-08T05:44:16;15.60;85.70
7666;DHT22;3875;46.562;4.898;2023-08-08T05:46:42;15.70;85.60
7666;DHT22;3875;46.562;4.898;2023-08-08T05:49:07;15.80;85.50
7666;DHT22;3875;46.562;4.898;2023-08-08T05:51:33;15.90;85.40
7666;DHT22;3875;46.562;4.898;2023-08-08T05:53:58;16.00;85.20
7666;DHT22;3875;46.562;4.898;2023-08-08T05:56:24;16.20;85.10
7666;DHT22;3875;46.562;4.898;2023-08-08T05:58:50;16.30;84.80
7666;DHT22;3875;46.562;4.898;2023-08-08T06:01:15;16.50;84.50
7666;DHT22;3875;46.562;4.898;2023-08-08T06:03:41;16.70;84.10
7666;DHT22;3875;46.562;4.898;2023-08-08T06:06:07;16.80;83.70
7666;DHT22;3875;46.562;4.898;2023-08-08T06:08:33;16.80;83.30
7666;DHT22;3875;46.562;4.898;2023-08-08T06:10:59;16.80;83.30
7666;DHT22;3875;46.562;4.898;2023-08-08T06:13:24;16.90;83.40
7666;DHT22;3875;46.562;4.898;2023-08-08T06:15:50;16.90;83.10
7666;DHT22;3875;46.562;4.898;2023-08-08T06:18:16;17.10;83.30
7666;DHT22;3875;46.562;4.898;2023-08-08T06:20:43;17.30;83.20
7666;DHT22;3875;46.562;4.898;2023-08-08T06:23:08;17.60;82.50
7666;DHT22;3875;46.562;4.898;2023-08-08T06:25:34;17.80;81.80
7666;DHT22;3875;46.562;4.898;2023-08-08T06:28:00;17.90;81.40
7666;DHT22;3875;46.562;4.898;2023-08-08T06:30:26;17.80;81.30
7666;DHT22;3875;46.562;4.898;2023-08-08T06:32:51;17.90;81.30
7666;DHT22;3875;46.562;4.898;2023-08-08T06:35:17;17.90;81.30
7666;DHT22;3875;46.562;4.898;2023-08-08T06:37:43;17.90;81.40
7666;DHT22;3875;46.562;4.898;2023-08-08T06:40:10;17.90;81.10
7666;DHT22;3875;46.562;4.898;2023-08-08T06:42:36;18.00;81.20
7666;DHT22;3875;46.562;4.898;2023-08-08T06:45:02;18.00;81.50
7666;DHT22;3875;46.562;4.898;2023-08-08T06:47:27;18.10;81.30
7666;DHT22;3875;46.562;4.898;2023-08-08T06:49:53;18.20;81.20
7666;DHT22;3875;46.562;4.898;2023-08-08T06:52:19;18.20;80.80
7666;DHT22;3875;46.562;4.898;2023-08-08T06:54:44;18.20;81.10
7666;DHT22;3875;46.562;4.898;2023-08-08T06:57:10;18.30;81.00
7666;DHT22;3875;46.562;4.898;2023-08-08T06:59:36;18.40;80.90
7666;DHT22;3875;46.562;4.898;2023-08-08T07:02:01;18.40;80.50
7666;DHT22;3875;46.562;4.898;2023-08-08T07:04:27;18.50;80.50
7666;DHT22;3875;46.562;4.898;2023-08-08T07:06:53;18.50;80.70
7666;DHT22;3875;46.562;4.898;2023-08-08T07:09:18;18.60;80.50
7666;DHT22;3875;46.562;4.898;2023-08-08T07:11:44;18.60;80.40
7666;DHT22;3875;46.562;4.898;2023-08-08T07:14:10;18.70;80.30
7666;DHT22;3875;46.562;4.898;2023-08-08T07:16:35;18.70;80.40
7666;DHT22;3875;46.562;4.898;2023-08-08T07:19:01;18.80;80.50
7666;DHT22;3875;46.562;4.898;2023-08-08T07:21:26;18.90;80.80
7666;DHT22;3875;46.562;4.898;2023-08-08T07:23:52;18.90;80.90
7666;DHT22;3875;46.562;4.898;2023-08-08T07:26:18;19.00;81.10
7666;DHT22;3875;46.562;4.898;2023-08-08T07:28:43;19.10;81.00
7666;DHT22;3875;46.562;4.898;2023-08-08T07:31:09;19.20;80.90
7666;DHT22;3875;46.562;4.898;2023-08-08T07:33:35;19.30;80.70
7666;DHT22;3875;46.562;4.898;2023-08-08T07:36:01;19.40;80.60
7666;DHT22;3875;46.562;4.898;2023-08-08T07:38:26;19.50;80.60
7666;DHT22;3875;46.562;4.898;2023-08-08T07:40:52;19.60;80.40
7666;DHT22;3875;46.562;4.898;2023-08-08T07:43:17;19.70;80.40
7666;DHT22;3875;46.562;4.898;2023-08-08T07:45:43;19.90;80.20
7666;DHT22;3875;46.562;4.898;2023-08-08T07:48:09;20.00;80.00
7666;DHT22;3875;46.562;4.898;2023-08-08T07:50:35;20.20;79.30
7666;DHT22;3875;46.562;4.898;2023-08-08T07:53:01;20.30;79.50
7666;DHT22;3875;46.562;4.898;2023-08-08T07:55:26;20.40;79.20
7666;DHT22;3875;46.562;4.898;2023-08-08T07:57:52;20.50;78.80
7666;DHT22;3875;46.562;4.898;2023-08-08T08:00:18;20.60;78.50
7666;DHT22;3875;46.562;4.898;2023-08-08T08:02:45;20.70;78.70
7666;DHT22;3875;46.562;4.898;2023-08-08T08:05:11;20.80;78.20
7666;DHT22;3875;46.562;4.898;2023-08-08T08:07:38;20.90;77.90
7666;DHT22;3875;46.562;4.898;2023-08-08T08:10:07;21.00;77.60
7666;DHT22;3875;46.562;4.898;2023-08-08T08:12:35;21.10;77.80
7666;DHT22;3875;46.562;4.898;2023-08-08T08:15:01;21.20;77.80
7666;DHT22;3875;46.562;4.898;2023-08-08T08:17:27;21.40;77.90
7666;DHT22;3875;46.562;4.898;2023-08-08T08:19:55;21.50;77.70
7666;DHT22;3875;46.562;4.898;2023-08-08T08:22:21;21.60;73.40
7666;DHT22;3875;46.562;4.898;2023-08-08T08:24:46;21.70;73.50
7666;DHT22;3875;46.562;4.898;2023-08-08T08:27:13;21.90;72.90
7666;DHT22;3875;46.562;4.898;2023-08-08T08:29:39;22.10;71.90
7666;DHT22;3875;46.562;4.898;2023-08-08T08:32:05;22.20;71.40
7666;DHT22;3875;46.562;4.898;2023-08-08T08:34:31;22.50;67.60
7666;DHT22;3875;46.562;4.898;2023-08-08T08:36:57;22.90;66.90
7666;DHT22;3875;46.562;4.898;2023-08-08T08:39:23;23.00;66.40
7666;DHT22;3875;46.562;4.898;2023-08-08T08:41:49;23.10;63.50
7666;DHT22;3875;46.562;4.898;2023-08-08T08:44:21;23.30;66.10
7666;DHT22;3875;46.562;4.898;2023-08-08T08:46:48;24.00;64.10
7666;DHT22;3875;46.562;4.898;2023-08-08T08:49:17;24.30;62.90
7666;DHT22;3875;46.562;4.898;2023-08-08T08:51:44;24.50;63.40
7666;DHT22;3875;46.562;4.898;2023-08-08T08:54:10;24.80;63.30
7666;DHT22;3875;46.562;4.898;2023-08-08T08:56:36;24.90;61.90
7666;DHT22;3875;46.562;4.898;2023-08-08T08:59:03;25.10;59.60
7666;DHT22;3875;46.562;4.898;2023-08-08T09:03:54;25.50;58.30
7666;DHT22;3875;46.562;4.898;2023-08-08T09:06:22;25.50;58.50
7666;DHT22;3875;46.562;4.898;2023-08-08T09:08:48;25.50;59.20
7666;DHT22;3875;46.562;4.898;2023-08-08T09:11:14;25.50;58.60
7666;DHT22;3875;46.562;4.898;2023-08-08T09:13:40;25.80;57.30
7666;DHT22;3875;46.562;4.898;2023-08-08T09:16:07;26.10;57.40
7666;DHT22;3875;46.562;4.898;2023-08-08T09:18:34;26.30;56.40
7666;DHT22;3875;46.562;4.898;2023-08-08T09:21:00;26.30;57.60
7666;DHT22;3875;46.562;4.898;2023-08-08T09:23:26;26.80;54.90
7666;DHT22;3875;46.562;4.898;2023-08-08T09:25:51;26.80;54.00
7666;DHT22;3875;46.562;4.898;2023-08-08T09:28:17;27.00;53.40
7666;DHT22;3875;46.562;4.898;2023-08-08T09:30:44;26.80;53.90
7666;DHT22;3875;46.562;4.898;2023-08-08T09:33:09;26.90;55.30
7666;DHT22;3875;46.562;4.898;2023-08-08T09:35:38;26.80;54.00
7666;DHT22;3875;46.562;4.898;2023-08-08T09:38:04;26.60;55.40
7666;DHT22;3875;46.562;4.898;2023-08-08T09:40:30;26.80;56.30
7666;DHT22;3875;46.562;4.898;2023-08-08T09:42:56;27.20;55.10
7666;DHT22;3875;46.562;4.898;2023-08-08T09:45:24;27.50;54.50
7666;DHT22;3875;46.562;4.898;2023-08-08T09:47:51;27.70;53.90
7666;DHT22;3875;46.562;4.898;2023-08-08T09:50:18;27.90;55.00
7666;DHT22;3875;46.562;4.898;2023-08-08T09:52:46;27.90;51.70
7666;DHT22;3875;46.562;4.898;2023-08-08T09:55:12;27.80;53.60
7666;DHT22;3875;46.562;4.898;2023-08-08T09:57:41;28.00;53.20
7666;DHT22;3875;46.562;4.898;2023-08-08T10:00:08;27.80;53.40
7666;DHT22;3875;46.562;4.898;2023-08-08T10:02:45;27.80;53.80
7666;DHT22;3875;46.562;4.898;2023-08-08T10:05:11;28.30;51.80
7666;DHT22;3875;46.562;4.898;2023-08-08T10:07:40;28.10;52.40
7666;DHT22;3875;46.562;4.898;2023-08-08T10:10:08;28.10;52.80
7666;DHT22;3875;46.562;4.898;2023-08-08T10:12:37;28.70;51.10
7666;DHT22;3875;46.562;4.898;2023-08-08T10:15:10;28.70;50.90
7666;DHT22;3875;46.562;4.898;2023-08-08T10:17:37;28.60;49.80
7666;DHT22;3875;46.562;4.898;2023-08-08T10:20:04;28.70;49.30
7666;DHT22;3875;46.562;4.898;2023-08-08T10:22:43;27.90;50.30
7666;DHT22;3875;46.562;4.898;2023-08-08T10:25:17;28.40;51.10
7666;DHT22;3875;46.562;4.898;2023-08-08T10:27:44;28.80;51.40
7666;DHT22;3875;46.562;4.898;2023-08-08T10:30:09;29.10;49.40
7666;DHT22;3875;46.562;4.898;2023-08-08T10:32:56;28.90;49.00
7666;DHT22;3875;46.562;4.898;2023-08-08T10:35:23;28.90;50.40
7666;DHT22;3875;46.562;4.898;2023-08-08T10:37:54;28.90;50.20
7666;DHT22;3875;46.562;4.898;2023-08-08T10:40:20;28.90;49.70
7666;DHT22;3875;46.562;4.898;2023-08-08T10:42:47;29.20;50.00
7666;DHT22;3875;46.562;4.898;2023-08-08T10:45:14;29.30;49.40
7666;DHT22;3875;46.562;4.898;2023-08-08T10:47:41;29.60;49.40
7666;DHT22;3875;46.562;4.898;2023-08-08T10:50:23;29.80;49.90
7666;DHT22;3875;46.562;4.898;2023-08-08T10:55:34;30.10;49.10
7666;DHT22;3875;46.562;4.898;2023-08-08T10:58:08;30.20;47.30
7666;DHT22;3875;46.562;4.898;2023-08-08T11:00:37;30.10;48.30
7666;DHT22;3875;46.562;4.898;2023-08-08T11:03:05;30.00;47.60
7666;DHT22;3875;46.562;4.898;2023-08-08T11:05:32;29.90;48.80
7666;DHT22;3875;46.562;4.898;2023-08-08T11:07:59;30.90;47.90
7666;DHT22;3875;46.562;4.898;2023-08-08T11:10:25;31.30;47.20
7666;DHT22;3875;46.562;4.898;2023-08-08T11:13:02;31.20;46.80
7666;DHT22;3875;46.562;4.898;2023-08-08T11:15:34;30.80;45.40
7666;DHT22;3875;46.562;4.898;2023-08-08T11:18:01;30.60;46.70
7666;DHT22;3875;46.562;4.898;2023-08-08T11:20:34;30.80;48.20
7666;DHT22;3875;46.562;4.898;2023-08-08T11:23:00;30.90;48.70
7666;DHT22;3875;46.562;4.898;2023-08-08T11:25:28;30.90;49.10
7666;DHT22;3875;46.562;4.898;2023-08-08T11:27:55;31.10;49.10
7666;DHT22;3875;46.562;4.898;2023-08-08T11:30:22;30.80;45.80
7666;DHT22;3875;46.562;4.898;2023-08-08T11:32:49;30.80;47.00
7666;DHT22;3875;46.562;4.898;2023-08-08T11:35:23;30.70;46.40
7666;DHT22;3875;46.562;4.898;2023-08-08T11:37:50;30.70;47.30
7666;DHT22;3875;46.562;4.898;2023-08-08T11:40:17;30.90;46.40
7666;DHT22;3875;46.562;4.898;2023-08-08T11:42:43;31.00;46.90
7666;DHT22;3875;46.562;4.898;2023-08-08T11:45:11;31.10;46.10
7666;DHT22;3875;46.562;4.898;2023-08-08T11:47:38;30.90;45.40
7666;DHT22;3875;46.562;4.898;2023-08-08T11:50:06;31.20;46.50
7666;DHT22;3875;46.562;4.898;2023-08-08T11:52:34;31.20;46.00
7666;DHT22;3875;46.562;4.898;2023-08-08T11:55:00;31.20;46.30
7666;DHT22;3875;46.562;4.898;2023-08-08T11:57:29;31.10;46.20
7666;DHT22;3875;46.562;4.898;2023-08-08T11:59:57;30.80;46.40
7666;DHT22;3875;46.562;4.898;2023-08-08T12:02:23;30.80;46.90
7666;DHT22;3875;46.562;4.898;2023-08-08T12:04:49;31.00;46.90
7666;DHT22;3875;46.562;4.898;2023-08-08T12:07:16;31.20;46.40
7666;DHT22;3875;46.562;4.898;2023-08-08T12:09:42;31.30;46.50
7666;DHT22;3875;46.562;4.898;2023-08-08T12:12:08;31.40;47.10
7666;DHT22;3875;46.562;4.898;2023-08-08T12:14:42;31.30;46.30
7666;DHT22;3875;46.562;4.898;2023-08-08T12:17:09;31.20;46.50
7666;DHT22;3875;46.562;4.898;2023-08-08T12:19:34;31.00;44.40
7666;DHT22;3875;46.562;4.898;2023-08-08T12:22:00;31.20;45.50
7666;DHT22;3875;46.562;4.898;2023-08-08T12:24:26;31.50;45.90
7666;DHT22;3875;46.562;4.898;2023-08-08T12:26:52;31.80;46.10
7666;DHT22;3875;46.562;4.898;2023-08-08T12:29:17;31.70;44.80
7666;DHT22;3875;46.562;4.898;2023-08-08T12:31:43;31.60;45.20
7666;DHT22;3875;46.562;4.898;2023-08-08T12:34:09;31.20;44.50
7666;DHT22;3875;46.562;4.898;2023-08-08T12:36:35;31.20;45.10
7666;DHT22;3875;46.562;4.898;2023-08-08T12:39:01;31.40;45.90
7666;DHT22;3875;46.562;4.898;2023-08-08T12:41:26;31.40;44.50
7666;DHT22;3875;46.562;4.898;2023-08-08T12:43:55;31.10;45.00
7666;DHT22;3875;46.562;4.898;2023-08-08T12:46:20;31.20;45.20
7666;DHT22;3875;46.562;4.898;2023-08-08T12:48:47;31.20;45.50
7666;DHT22;3875;46.562;4.898;2023-08-08T12:51:12;31.60;46.20
7666;DHT22;3875;46.562;4.898;2023-08-08T12:53:38;31.80;45.20
7666;DHT22;3875;46.562;4.898;2023-08-08T12:56:04;32.00;45.70
7666;DHT22;3875;46.562;4.898;2023-08-08T12:58:30;31.90;45.40
7666;DHT22;3875;46.562;4.898;2023-08-08T13:00:55;32.00;45.70
7666;DHT22;3875;46.562;4.898;2023-08-08T13:03:21;32.10;45.60
7666;DHT22;3875;46.562;4.898;2023-08-08T13:05:47;32.30;45.30
7666;DHT22;3875;46.562;4.898;2023-08-08T13:08:12;32.30;45.10
7666;DHT22;3875;46.562;4.898;2023-08-08T13:10:39;32.30;44.30
7666;DHT22;3875;46.562;4.898;2023-08-08T13:13:05;32.00;42.60
7666;DHT22;3875;46.562;4.898;2023-08-08T13:15:31;31.90;42.90
7666;DHT22;3875;46.562;4.898;2023-08-08T13:17:57;31.40;42.40
7666;DHT22;3875;46.562;4.898;2023-08-08T13:20:25;31.40;44.20
7666;DHT22;3875;46.562;4.898;2023-08-08T13:22:51;31.30;44.00
7666;DHT22;3875;46.562;4.898;2023-08-08T13:25:17;31.70;44.20
7666;DHT22;3875;46.562;4.898;2023-08-08T13:27:44;31.70;44.40
7666;DHT22;3875;46.562;4.898;2023-08-08T13:30:10;31.80;44.40
7666;DHT22;3875;46.562;4.898;2023-08-08T13:32:37;31.80;45.10
7666;DHT22;3875;46.562;4.898;2023-08-08T13:35:04;31.80;45.10
7666;DHT22;3875;46.562;4.898;2023-08-08T13:37:30;31.90;44.90
7666;DHT22;3875;46.562;4.898;2023-08-08T13:39:56;31.80;45.10
7666;DHT22;3875;46.562;4.898;2023-08-08T13:42:21;31.80;45.80
7666;DHT22;3875;46.562;4.898;2023-08-08T13:44:47;31.60;43.40
7666;DHT22;3875;46.562;4.898;2023-08-08T13:47:13;30.90;43.30
7666;DHT22;3875;46.562;4.898;2023-08-08T13:49:38;31.10;45.00
7666;DHT22;3875;46.562;4.898;2023-08-08T13:52:04;31.20;45.30
7666;DHT22;3875;46.562;4.898;2023-08-08T13:54:30;31.00;43.50
7666;DHT22;3875;46.562;4.898;2023-08-08T13:56:55;31.20;45.80
7666;DHT22;3875;46.562;4.898;2023-08-08T13:59:21;31.50;46.10
7666;DHT22;3875;46.562;4.898;2023-08-08T14:01:47;31.40;45.40
7666;DHT22;3875;46.562;4.898;2023-08-08T14:04:12;31.20;44.30
7666;DHT22;3875;46.562;4.898;2023-08-08T14:06:38;30.80;44.20
7666;DHT22;3875;46.562;4.898;2023-08-08T14:09:05;30.80;44.50
7666;DHT22;3875;46.562;4.898;2023-08-08T14:11:30;30.90;44.90
7666;DHT22;3875;46.562;4.898;2023-08-08T14:13:56;31.10;46.20
7666;DHT22;3875;46.562;4.898;2023-08-08T14:16:22;31.10;44.70
7666;DHT22;3875;46.562;4.898;2023-08-08T14:18:47;31.10;44.80
7666;DHT22;3875;46.562;4.898;2023-08-08T14:21:14;30.90;44.50
7666;DHT22;3875;46.562;4.898;2023-08-08T14:23:40;31.10;45.00
7666;DHT22;3875;46.562;4.898;2023-08-08T14:26:05;31.20;45.00
7666;DHT22;3875;46.562;4.898;2023-08-08T14:28:31;30.80;44.50
7666;DHT22;3875;46.562;4.898;2023-08-08T14:30:56;30.90;45.80
7666;DHT22;3875;46.562;4.898;2023-08-08T14:33:22;31.20;46.60
7666;DHT22;3875;46.562;4.898;2023-08-08T14:35:48;31.20;44.00
7666;DHT22;3875;46.562;4.898;2023-08-08T14:38:14;30.90;43.60
7666;DHT22;3875;46.562;4.898;2023-08-08T14:40:39;30.80;43.80
7666;DHT22;3875;46.562;4.898;2023-08-08T14:43:05;30.90;44.60
7666;DHT22;3875;46.562;4.898;2023-08-08T14:45:36;30.80;44.00
7666;DHT22;3875;46.562;4.898;2023-08-08T14:48:04;30.90;45.60
7666;DHT22;3875;46.562;4.898;2023-08-08T14:50:30;31.10;44.80
7666;DHT22;3875;46.562;4.898;2023-08-08T14:52:56;31.10;44.50
7666;DHT22;3875;46.562;4.898;2023-08-08T14:55:21;31.00;44.80
7666;DHT22;3875;46.562;4.898;2023-08-08T14:57:47;30.70;44.00
7666;DHT22;3875;46.562;4.898;2023-08-08T15:00:13;30.40;44.40
7666;DHT22;3875;46.562;4.898;2023-08-08T15:02:39;30.60;44.90
7666;DHT22;3875;46.562;4.898;2023-08-08T15:05:05;30.70;45.70
7666;DHT22;3875;46.562;4.898;2023-08-08T15:07:31;31.00;45.30
7666;DHT22;3875;46.562;4.898;2023-08-08T15:09:56;31.10;44.80
7666;DHT22;3875;46.562;4.898;2023-08-08T15:12:22;31.20;44.50
7666;DHT22;3875;46.562;4.898;2023-08-08T15:14:47;31.10;45.40
7666;DHT22;3875;46.562;4.898;2023-08-08T15:17:14;30.70;44.20
7666;DHT22;3875;46.562;4.898;2023-08-08T15:19:39;30.50;45.10
7666;DHT22;3875;46.562;4.898;2023-08-08T15:22:05;30.50;44.80
7666;DHT22;3875;46.562;4.898;2023-08-08T15:24:32;30.30;45.10
7666;DHT22;3875;46.562;4.898;2023-08-08T15:26:59;30.40;46.00
7666;DHT22;3875;46.562;4.898;2023-08-08T15:29:25;30.60;45.90
7666;DHT22;3875;46.562;4.898;2023-08-08T15:31:50;30.40;44.30
7666;DHT22;3875;46.562;4.898;2023-08-08T15:34:16;30.40;44.50
7666;DHT22;3875;46.562;4.898;2023-08-08T15:36:42;30.70;45.50
7666;DHT22;3875;46.562;4.898;2023-08-08T15:39:07;31.00;44.80
7666;DHT22;3875;46.562;4.898;2023-08-08T15:41:33;31.20;44.40
7666;DHT22;3875;46.562;4.898;2023-08-08T15:43:58;30.90;43.40
7666;DHT22;3875;46.562;4.898;2023-08-08T15:46:24;30.50;44.70
7666;DHT22;3875;46.562;4.898;2023-08-08T15:48:50;30.20;45.00
7666;DHT22;3875;46.562;4.898;2023-08-08T15:51:15;30.20;45.40
7666;DHT22;3875;46.562;4.898;2023-08-08T15:53:41;30.20;44.90
7666;DHT22;3875;46.562;4.898;2023-08-08T15:56:07;30.10;46.20
7666;DHT22;3875;46.562;4.898;2023-08-08T15:58:32;30.20;45.30
7666;DHT22;3875;46.562;4.898;2023-08-08T16:00:58;30.40;46.40